CheckWX is a tool to help pilots better visualize weather data.  It is not intended as a substitute for an official pre-flight weather briefing.

12:27:16 UTC

KEAU TAF
Chippewa Valley Regional Airport
Eau Claire, Wisconsin, USA
KEAU 261120Z 2612/2712 VRB02KT P6SM SKC FM261700 20007KT P6SM SCT250 FM270600 18007KT P6SM BKN050

Mar-26@
12:00 UTC

Mar-26 @ 12:00 UTC

Mar-26@
17:00 UTC

Mar-26 @ 17:00 UTC

KEAU 261120Z 2612/2712 VRB02KT P6SM SKC
Wind
  • Variable at 2 KTS
Cloud Levels
  • Clear skies

Mar-26@
17:00 UTC

Mar-26 @ 17:00 UTC

Mar-27@
06:00 UTC

Mar-27 @ 06:00 UTC

FM261700 20007KT P6SM SCT250

From

From Standard forecast or significant change

Wind
  • 200° at 7 KTS
Cloud Levels
  • Scattered at 25,000' AGL

Mar-27@
06:00 UTC

Mar-27 @ 06:00 UTC

Mar-27@
12:00 UTC

Mar-27 @ 12:00 UTC

FM270600 18007KT P6SM BKN050

From

From Standard forecast or significant change

Wind
  • 180° at 7 KTS
Cloud Levels
  • Broken at 5,000' AGL